Time;durP1;ratioP1;P1;durP2;ratioP2;P2;SDS_P1;SDS_P2;PMS_P1;PMS_P2;Temp;Humidity;BMP_temperature;BMP_pressure;BME280_temperature;BME280_humidity;BME280_pressure;Samples;Min_cycle;Max_cycle;Signal;HPM_P1;HPM_P2
2021/06/07 00:01:45;;;;;;;8.93;2.15;;;15.60;99.90;;;;;;6213819;23;20007;-77
2021/06/07 00:04:11;;;;;;;4.20;1.67;;;15.50;99.90;;;;;;6215540;23;19997;-77
2021/06/07 00:06:38;;;;;;;3.65;1.95;;;15.40;99.90;;;;;;6215447;23;19996;-77
2021/06/07 00:09:05;;;;;;;2.30;2.10;;;15.20;99.90;;;;;;6215749;23;20000;-78
2021/06/07 00:11:31;;;;;;;4.13;2.25;;;15.10;99.90;;;;;;6215452;23;19997;-77
2021/06/07 00:13:57;;;;;;;1.70;1.60;;;15.00;99.90;;;;;;6215549;23;20323;-77
2021/06/07 00:16:23;;;;;;;6.72;2.05;;;14.90;99.90;;;;;;6215551;23;20051;-77
2021/06/07 00:18:49;;;;;;;3.75;1.90;;;14.90;99.90;;;;;;6213768;23;20035;-77
2021/06/07 00:21:20;;;;;;;2.40;1.92;;;14.90;99.90;;;;;;6215279;23;20008;-77
2021/06/07 00:23:48;;;;;;;4.50;1.98;;;14.90;99.90;;;;;;6214956;23;19997;-78
2021/06/07 00:26:13;;;;;;;6.55;1.98;;;15.00;99.90;;;;;;6215882;23;20111;-77
2021/06/07 00:28:40;;;;;;;6.18;2.10;;;14.90;99.90;;;;;;6214938;23;20021;-77
2021/06/07 00:31:08;;;;;;;5.32;2.35;;;14.90;99.90;;;;;;6215190;23;20079;-77
2021/06/07 00:33:34;;;;;;;6.15;2.78;;;14.90;99.90;;;;;;6215333;23;20024;-77
2021/06/07 00:36:01;;;;;;;5.18;2.55;;;14.90;99.90;;;;;;6215413;23;20008;-77
2021/06/07 00:38:27;;;;;;;5.05;2.50;;;14.90;99.90;;;;;;6214412;23;20000;-77
2021/06/07 00:40:54;;;;;;;3.30;2.38;;;14.90;99.90;;;;;;6213775;23;20446;-77
2021/06/07 00:43:20;;;;;;;2.35;1.92;;;15.00;99.90;;;;;;6214083;23;20459;-77
2021/06/07 00:45:46;;;;;;;2.30;2.10;;;14.80;99.90;;;;;;6212894;23;20079;-77
2021/06/07 00:48:12;;;;;;;2.80;1.98;;;14.70;99.90;;;;;;6214665;23;20000;-77
2021/06/07 00:50:59;;;;;;;5.28;2.25;;;14.90;99.90;;;;;;6214821;23;20089;-77
2021/06/07 00:53:25;;;;;;;2.03;1.80;;;14.90;99.90;;;;;;6215106;23;20015;-77
2021/06/07 00:55:57;;;;;;;5.00;2.00;;;14.90;99.90;;;;;;6215247;23;20050;-77
2021/06/07 00:58:28;;;;;;;2.15;1.58;;;14.80;99.90;;;;;;6214793;23;20001;-78
2021/06/07 01:00:54;;;;;;;1.90;1.60;;;14.70;99.90;;;;;;6215110;23;20004;-78
2021/06/07 01:03:22;;;;;;;3.95;2.13;;;14.70;99.90;;;;;;6214187;23;20027;-77
2021/06/07 01:05:50;;;;;;;3.47;1.80;;;14.70;99.90;;;;;;6214723;23;20004;-78
2021/06/07 01:08:17;;;;;;;2.53;1.98;;;14.60;99.90;;;;;;6214704;23;20446;-78
2021/06/07 01:10:45;;;;;;;4.63;1.73;;;14.60;99.90;;;;;;6214855;23;20454;-77
2021/06/07 01:13:13;;;;;;;2.20;1.60;;;14.60;99.90;;;;;;6215448;23;20001;-77
2021/06/07 01:15:40;;;;;;;2.67;1.52;;;14.60;99.90;;;;;;6214837;23;20005;-77
2021/06/07 01:18:06;;;;;;;5.03;1.75;;;14.70;99.90;;;;;;6215043;23;20001;-78
2021/06/07 01:20:31;;;;;;;2.03;1.55;;;14.70;99.90;;;;;;6215376;23;20454;-77
2021/06/07 01:22:57;;;;;;;6.65;2.35;;;14.80;99.90;;;;;;6215006;23;20079;-77
2021/06/07 01:25:29;;;;;;;3.45;2.08;;;14.80;99.90;;;;;;6215440;23;20004;-77
2021/06/07 01:27:56;;;;;;;4.85;1.95;;;14.60;99.90;;;;;;6214561;23;19992;-77
2021/06/07 01:30:32;;;;;;;2.47;1.75;;;14.70;99.90;;;;;;6213552;23;20008;-77
2021/06/07 01:32:59;;;;;;;8.98;2.15;;;14.60;99.90;;;;;;6217169;23;20003;-78
2021/06/07 01:35:25;;;;;;;2.00;1.60;;;14.70;99.90;;;;;;6215709;23;20067;-77
2021/06/07 01:37:53;;;;;;;7.15;1.92;;;14.90;99.90;;;;;;6216880;23;19996;-77
2021/06/07 01:40:23;;;;;;;2.88;1.45;;;14.90;99.90;;;;;;6217021;23;20063;-78
2021/06/07 01:42:49;;;;;;;6.43;1.80;;;14.90;99.90;;;;;;6217382;23;20001;-78
2021/06/07 01:45:18;;;;;;;4.63;2.15;;;14.80;99.90;;;;;;6216788;23;19993;-78
2021/06/07 01:47:44;;;;;;;4.35;2.20;;;14.80;99.90;;;;;;6217131;23;20058;-77
2021/06/07 01:50:11;;;;;;;4.40;1.80;;;14.80;99.90;;;;;;6216916;23;20048;-77
2021/06/07 01:52:43;;;;;;;4.97;1.88;;;14.80;99.90;;;;;;6216771;23;20008;-77
2021/06/07 01:55:18;;;;;;;4.40;1.60;;;14.90;99.90;;;;;;6216402;23;19997;-78
2021/06/07 01:57:45;;;;;;;2.55;1.60;;;15.00;99.90;;;;;;6216420;23;20346;-77
2021/06/07 02:00:34;;;;;;;3.67;2.38;;;14.90;99.90;;;;;;6217041;23;20000;-77
2021/06/07 02:03:00;;;;;;;3.20;1.63;;;14.90;99.90;;;;;;6216260;23;20028;-77
2021/06/07 02:05:30;;;;;;;2.72;2.00;;;14.90;99.90;;;;;;6214449;23;20036;-78
2021/06/07 02:08:01;;;;;;;3.75;2.22;;;14.90;99.90;;;;;;6216110;23;20003;-78
2021/06/07 02:10:29;;;;;;;6.05;1.70;;;15.00;99.90;;;;;;6216491;23;20020;-77
2021/06/07 02:12:55;;;;;;;4.07;1.80;;;15.00;99.90;;;;;;6216505;23;20080;-78
2021/06/07 02:15:22;;;;;;;2.75;1.42;;;15.10;99.90;;;;;;6214998;23;20026;-78
2021/06/07 02:17:48;;;;;;;2.28;1.80;;;14.80;99.90;;;;;;6216626;23;20000;-78
2021/06/07 02:20:17;;;;;;;7.05;2.05;;;14.60;99.90;;;;;;6215983;23;20368;-77
2021/06/07 02:22:45;;;;;;;4.28;2.10;;;14.60;99.90;;;;;;6216380;23;20003;-77
2021/06/07 02:25:14;;;;;;;5.93;2.17;;;14.60;99.90;;;;;;6216498;23;20095;-77
2021/06/07 02:27:41;;;;;;;4.00;2.25;;;14.60;99.90;;;;;;6216620;23;20000;-78
2021/06/07 02:30:10;;;;;;;3.40;1.80;;;14.60;99.90;;;;;;6216230;23;19996;-77
2021/06/07 02:32:36;;;;;;;4.95;2.15;;;14.70;99.90;;;;;;6216165;23;20079;-77
2021/06/07 02:35:05;;;;;;;3.15;2.17;;;14.70;99.90;;;;;;6215963;23;19996;-77
2021/06/07 02:37:31;;;;;;;4.03;2.03;;;14.80;99.90;;;;;;6216597;23;20743;-77
2021/06/07 02:39:57;;;;;;;2.72;1.80;;;14.80;99.90;;;;;;6216513;23;20068;-77
2021/06/07 02:42:22;;;;;;;4.00;1.85;;;14.70;99.90;;;;;;6216064;23;20055;-77
2021/06/07 02:44:49;;;;;;;3.95;2.72;;;14.70;99.90;;;;;;6215122;23;20000;-78
2021/06/07 02:47:16;;;;;;;4.18;1.60;;;14.70;99.90;;;;;;6215911;23;20004;-77
2021/06/07 02:49:42;;;;;;;6.10;2.03;;;14.80;99.90;;;;;;6216230;23;20003;-77
2021/06/07 02:52:08;;;;;;;2.78;2.42;;;14.70;99.90;;;;;;6214388;23;20016;-77
2021/06/07 02:54:34;;;;;;;7.90;2.72;;;14.80;99.90;;;;;;6215424;23;20484;-77
2021/06/07 02:57:01;;;;;;;2.10;2.00;;;14.80;99.90;;;;;;6215960;23;19997;-78
2021/06/07 02:59:27;;;;;;;4.40;1.95;;;14.90;99.90;;;;;;6215899;23;20449;-77
2021/06/07 03:01:52;;;;;;;2.10;2.00;;;14.80;99.90;;;;;;6216012;23;19996;-77
2021/06/07 03:04:18;;;;;;;6.03;2.50;;;14.80;99.90;;;;;;6215833;23;20059;-77
2021/06/07 03:06:44;;;;;;;3.42;2.60;;;14.80;99.90;;;;;;6216145;23;20076;-77
2021/06/07 03:09:10;;;;;;;2.72;1.73;;;14.70;99.90;;;;;;6215894;23;20063;-77
2021/06/07 03:11:36;;;;;;;5.35;2.47;;;14.50;99.90;;;;;;6216378;23;20000;-77
2021/06/07 03:14:02;;;;;;;2.45;2.13;;;14.40;99.90;;;;;;6216072;23;20373;-77
2021/06/07 03:16:27;;;;;;;7.28;2.13;;;14.40;99.90;;;;;;6216323;23;20001;-77
2021/06/07 03:18:53;;;;;;;4.50;2.30;;;14.40;99.90;;;;;;6215886;23;19997;-77
2021/06/07 03:21:19;;;;;;;4.90;2.38;;;14.30;99.90;;;;;;6216113;23;20079;-77
2021/06/07 03:23:45;;;;;;;5.75;3.70;;;14.40;99.90;;;;;;6215803;23;20001;-77
2021/06/07 03:26:11;;;;;;;5.25;2.05;;;14.40;99.90;;;;;;6215819;23;19997;-78
2021/06/07 03:28:38;;;;;;;6.57;2.40;;;14.50;99.90;;;;;;6215868;23;19993;-77
2021/06/07 03:31:05;;;;;;;2.53;2.33;;;14.60;99.90;;;;;;6215936;23;20050;-77
2021/06/07 03:33:31;;;;;;;5.85;2.63;;;14.60;99.90;;;;;;6215462;23;20000;-77
2021/06/07 03:35:58;;;;;;;1.85;1.75;;;14.50;99.90;;;;;;6215928;23;20445;-77
2021/06/07 03:38:25;;;;;;;2.75;2.55;;;14.40;99.90;;;;;;6215858;23;20007;-77
2021/06/07 03:40:55;;;;;;;3.55;2.50;;;14.40;99.90;;;;;;6216203;23;20007;-77
2021/06/07 03:43:23;;;;;;;2.47;2.28;;;14.30;99.90;;;;;;6215358;23;20476;-77
2021/06/07 03:45:49;;;;;;;5.07;2.22;;;14.30;99.90;;;;;;6215440;23;20717;-77
2021/06/07 03:48:15;;;;;;;3.00;2.25;;;14.10;99.90;;;;;;6215296;23;20063;-77
2021/06/07 03:50:41;;;;;;;3.47;2.22;;;14.10;99.90;;;;;;6215557;23;20016;-77
2021/06/07 03:53:08;;;;;;;5.18;2.80;;;13.90;99.90;;;;;;6215808;23;20028;-77
2021/06/07 03:55:36;;;;;;;6.15;3.05;;;13.90;99.90;;;;;;6215614;23;20000;-78
2021/06/07 03:58:03;;;;;;;4.32;2.22;;;13.90;99.90;;;;;;6215508;23;20025;-77
2021/06/07 04:00:31;;;;;;;3.80;2.10;;;13.90;99.90;;;;;;6215109;23;20000;-77
2021/06/07 04:02:58;;;;;;;3.50;2.55;;;14.00;99.90;;;;;;6215231;23;20111;-77
2021/06/07 04:05:24;;;;;;;2.70;2.50;;;14.20;99.90;;;;;;6215618;23;20000;-77
2021/06/07 04:07:51;;;;;;;5.05;2.60;;;14.20;99.90;;;;;;6215038;23;20335;-77
2021/06/07 04:10:20;;;;;;;2.88;1.80;;;14.10;99.90;;;;;;6215534;23;20000;-77
2021/06/07 04:12:47;;;;;;;3.53;2.42;;;14.00;99.90;;;;;;6215597;23;20005;-77
2021/06/07 04:15:16;;;;;;;4.90;2.70;;;13.90;99.90;;;;;;6215478;23;20001;-77
2021/06/07 04:17:42;;;;;;;4.43;2.75;;;13.80;99.90;;;;;;6214762;23;20000;-77
2021/06/07 04:20:09;;;;;;;4.65;2.90;;;13.70;99.90;;;;;;6215074;23;20095;-77
2021/06/07 04:22:36;;;;;;;4.22;2.17;;;13.70;99.90;;;;;;6215598;23;20071;-77
2021/06/07 04:25:06;;;;;;;4.13;2.70;;;13.60;99.90;;;;;;6215545;23;20539;-78
2021/06/07 04:27:32;;;;;;;5.80;2.10;;;13.60;99.90;;;;;;6215139;23;20001;-77
2021/06/07 04:29:58;;;;;;;4.63;3.38;;;13.70;99.90;;;;;;6214883;23;20044;-77
2021/06/07 04:32:24;;;;;;;3.38;2.85;;;13.70;99.90;;;;;;6214967;23;20001;-77
2021/06/07 04:34:50;;;;;;;6.88;2.53;;;13.80;99.90;;;;;;6215335;23;19997;-77
2021/06/07 04:37:16;;;;;;;4.53;2.80;;;13.80;99.90;;;;;;6215215;23;20000;-77
2021/06/07 04:39:42;;;;;;;6.68;2.42;;;13.80;99.90;;;;;;6214652;23;20009;-77
2021/06/07 04:42:08;;;;;;;5.88;2.80;;;13.60;99.90;;;;;;6214701;23;20492;-77
2021/06/07 04:44:34;;;;;;;3.03;2.10;;;13.70;99.90;;;;;;6214875;23;20055;-77
2021/06/07 04:47:01;;;;;;;2.35;2.05;;;13.70;99.90;;;;;;6215204;23;19996;-78
2021/06/07 04:49:26;;;;;;;8.90;2.80;;;13.70;99.90;;;;;;6215262;23;20032;-77
2021/06/07 04:51:52;;;;;;;8.32;2.60;;;13.70;99.90;;;;;;6215288;23;20296;-77
2021/06/07 04:54:18;;;;;;;5.95;2.90;;;13.80;99.90;;;;;;6212969;23;20319;-77
2021/06/07 04:56:44;;;;;;;6.85;2.85;;;13.90;99.90;;;;;;6213321;23;19997;-77
2021/06/07 04:59:10;;;;;;;3.30;2.63;;;13.90;99.90;;;;;;6214599;23;20051;-77
2021/06/07 05:01:37;;;;;;;4.40;2.58;;;14.00;99.90;;;;;;6214724;23;19993;-77
2021/06/07 05:04:02;;;;;;;3.22;2.50;;;13.90;99.90;;;;;;6215025;23;20024;-77
2021/06/07 05:06:28;;;;;;;4.05;2.38;;;13.90;99.90;;;;;;6214290;23;20411;-78
2021/06/07 05:08:54;;;;;;;4.03;2.78;;;14.00;99.90;;;;;;6214791;23;20338;-77
2021/06/07 05:11:20;;;;;;;2.78;2.30;;;14.10;99.90;;;;;;6214718;23;19996;-77
2021/06/07 05:13:45;;;;;;;4.40;2.70;;;14.20;99.90;;;;;;6214779;23;20005;-77
2021/06/07 05:16:11;;;;;;;3.55;2.33;;;14.20;99.90;;;;;;6214847;23;20342;-77
2021/06/07 05:18:37;;;;;;;6.32;2.83;;;14.30;99.90;;;;;;6214385;23;20095;-78
2021/06/07 05:21:04;;;;;;;4.63;2.67;;;14.40;99.90;;;;;;6215108;23;20427;-77
2021/06/07 05:23:30;;;;;;;3.63;2.40;;;14.50;99.90;;;;;;6212834;23;20025;-77
2021/06/07 05:25:57;;;;;;;5.68;2.58;;;14.50;99.90;;;;;;6215181;23;20445;-77
2021/06/07 05:28:23;;;;;;;5.68;3.22;;;14.40;99.90;;;;;;6214023;23;19992;-77
2021/06/07 05:30:50;;;;;;;8.60;2.63;;;14.50;99.90;;;;;;6213999;23;20001;-77
2021/06/07 05:33:17;;;;;;;4.80;2.33;;;14.40;99.90;;;;;;6214438;23;20051;-78
2021/06/07 05:35:46;;;;;;;2.88;2.67;;;14.50;99.90;;;;;;6215197;23;20075;-77
2021/06/07 05:38:12;;;;;;;6.40;3.08;;;14.60;99.90;;;;;;6214027;23;20040;-77
2021/06/07 05:40:40;;;;;;;6.47;2.85;;;14.80;99.90;;;;;;6213251;23;20001;-78
2021/06/07 05:43:06;;;;;;;4.80;2.88;;;15.00;99.90;;;;;;6213783;23;20007;-78
2021/06/07 05:45:32;;;;;;;5.20;2.80;;;15.20;99.90;;;;;;6214047;23;20042;-77
2021/06/07 05:47:58;;;;;;;6.03;3.00;;;15.40;99.90;;;;;;6214871;23;20020;-77
2021/06/07 05:50:28;;;;;;;4.45;3.15;;;15.50;99.90;;;;;;6215010;23;20443;-78
2021/06/07 05:52:53;;;;;;;5.65;2.63;;;15.60;99.90;;;;;;6214599;23;20001;-77
2021/06/07 05:55:22;;;;;;;4.22;2.60;;;15.70;99.90;;;;;;6214293;23;20822;-77
2021/06/07 05:57:51;;;;;;;5.68;2.75;;;15.90;99.90;;;;;;6214538;23;20071;-77
2021/06/07 06:00:21;;;;;;;6.22;2.97;;;16.10;99.90;;;;;;6216430;23;20001;-77
2021/06/07 06:02:47;;;;;;;4.85;2.88;;;16.30;99.90;;;;;;6213184;23;20504;-78
2021/06/07 06:05:14;;;;;;;9.35;3.83;;;16.40;99.90;;;;;;6214089;23;19997;-78
2021/06/07 06:07:41;;;;;;;6.72;4.05;;;16.60;99.90;;;;;;6213427;23;19997;-78
2021/06/07 06:10:07;;;;;;;7.15;2.72;;;16.70;99.90;;;;;;6214224;23;20004;-78
2021/06/07 06:12:33;;;;;;;5.18;3.05;;;16.80;99.90;;;;;;6213710;23;19996;-78
2021/06/07 06:14:59;;;;;;;6.35;2.72;;;16.90;99.90;;;;;;6214331;23;20007;-78
2021/06/07 06:17:24;;;;;;;6.55;2.75;;;17.00;99.90;;;;;;6213761;23;20004;-78
2021/06/07 06:19:55;;;;;;;6.03;3.28;;;17.10;99.90;;;;;;6206460;23;20035;-78
2021/06/07 06:22:22;;;;;;;5.38;2.53;;;17.20;99.90;;;;;;6213793;23;20451;-78
2021/06/07 06:24:50;;;;;;;3.53;2.30;;;17.00;99.90;;;;;;6214416;23;19992;-78
2021/06/07 06:27:18;;;;;;;3.30;2.47;;;16.90;99.90;;;;;;6215375;23;20139;-78
2021/06/07 06:29:45;;;;;;;4.22;3.00;;;17.00;99.90;;;;;;6213114;23;20001;-78
2021/06/07 06:32:16;;;;;;;3.92;2.72;;;17.10;99.90;;;;;;6213608;23;20000;-78
2021/06/07 06:34:43;;;;;;;5.90;3.08;;;17.10;99.90;;;;;;6215034;23;20374;-78
2021/06/07 06:37:09;;;;;;;2.90;2.50;;;17.30;99.90;;;;;;6213580;23;20008;-78
2021/06/07 06:39:35;;;;;;;6.30;2.65;;;17.40;99.90;;;;;;6214707;23;20319;-78
2021/06/07 06:42:04;;;;;;;4.57;2.80;;;17.50;99.90;;;;;;6213498;23;20435;-79
2021/06/07 06:44:29;;;;;;;4.72;2.65;;;17.70;99.90;;;;;;6214252;23;20033;-78
2021/06/07 06:47:00;;;;;;;5.47;2.75;;;17.80;99.90;;;;;;6214468;23;20004;-78
2021/06/07 06:49:27;;;;;;;4.90;2.60;;;17.70;99.90;;;;;;6214073;23;20036;-78
2021/06/07 06:51:59;;;;;;;4.70;2.85;;;17.70;99.90;;;;;;6213300;23;20016;-82
2021/06/07 06:54:27;;;;;;;6.88;2.42;;;18.00;99.90;;;;;;6212428;23;20331;-78
2021/06/07 06:56:53;;;;;;;4.95;2.83;;;18.30;99.90;;;;;;6212111;23;20020;-79
2021/06/07 06:59:18;;;;;;;5.63;2.67;;;18.30;99.90;;;;;;6213032;23;20462;-79
2021/06/07 07:01:44;;;;;;;7.30;2.78;;;18.40;99.90;;;;;;6212975;23;20000;-79
2021/06/07 07:04:10;;;;;;;3.78;2.53;;;18.40;99.90;;;;;;6213623;23;20057;-80
2021/06/07 07:06:36;;;;;;;4.47;3.05;;;18.50;99.90;;;;;;6214179;23;20023;-80
2021/06/07 07:09:04;;;;;;;4.45;2.75;;;18.60;99.90;;;;;;6214071;23;20001;-80
2021/06/07 07:11:30;;;;;;;6.43;3.20;;;18.80;99.90;;;;;;6213692;23;20490;-80
2021/06/07 07:13:56;;;;;;;3.22;2.60;;;18.80;99.90;;;;;;6213521;23;20027;-80
2021/06/07 07:16:22;;;;;;;5.28;2.60;;;18.80;99.90;;;;;;6214257;23;20004;-80
2021/06/07 07:18:48;;;;;;;4.90;2.47;;;18.70;99.90;;;;;;6214162;23;20390;-80
2021/06/07 07:21:14;;;;;;;11.95;2.70;;;18.60;99.90;;;;;;6213625;23;20001;-81
2021/06/07 07:23:39;;;;;;;8.50;3.13;;;18.80;99.90;;;;;;6214374;23;19997;-80
2021/06/07 07:26:05;;;;;;;5.90;2.28;;;18.90;99.90;;;;;;6213082;23;19996;-81
2021/06/07 07:28:31;;;;;;;3.35;2.33;;;18.90;99.90;;;;;;6213640;23;20050;-81
2021/06/07 07:30:57;;;;;;;6.85;3.15;;;18.90;99.90;;;;;;6211728;23;20000;-80
2021/06/07 07:33:23;;;;;;;3.35;2.05;;;19.10;99.90;;;;;;6213324;23;19996;-80
2021/06/07 07:35:49;;;;;;;3.28;2.10;;;19.20;99.90;;;;;;6214651;23;20005;-80
2021/06/07 07:38:15;;;;;;;3.92;2.20;;;19.20;99.90;;;;;;6212012;23;20051;-80
2021/06/07 07:40:42;;;;;;;3.13;2.22;;;19.20;99.90;;;;;;6213695;23;20023;-81
2021/06/07 07:43:11;;;;;;;6.53;2.47;;;19.10;99.90;;;;;;6214014;23;20024;-80
2021/06/07 07:45:39;;;;;;;3.67;2.58;;;19.10;99.90;;;;;;6213905;23;20051;-80
2021/06/07 07:48:07;;;;;;;7.43;2.65;;;19.00;99.90;;;;;;6214005;23;19993;-80
2021/06/07 07:50:33;;;;;;;3.65;2.50;;;19.30;99.90;;;;;;6212013;23;20000;-81
2021/06/07 07:53:02;;;;;;;3.72;2.17;;;19.60;99.90;;;;;;6211385;23;20004;-80
2021/06/07 07:55:31;;;;;;;3.50;2.28;;;19.50;99.90;;;;;;6209459;23;19998;-81
2021/06/07 07:57:58;;;;;;;2.35;2.08;;;18.90;99.90;;;;;;6211948;23;19996;-81
2021/06/07 08:00:26;;;;;;;7.75;2.35;;;18.90;99.90;;;;;;6212616;23;20385;-80
2021/06/07 08:02:53;;;;;;;4.97;2.60;;;19.10;99.90;;;;;;6213690;23;20343;-80
2021/06/07 08:05:19;;;;;;;6.05;2.00;;;19.30;99.90;;;;;;6213223;23;19993;-80
2021/06/07 08:07:45;;;;;;;5.40;1.98;;;19.10;99.90;;;;;;6210600;23;20001;-80
2021/06/07 08:10:12;;;;;;;5.80;2.45;;;19.20;99.90;;;;;;6213777;23;20016;-80
2021/06/07 08:12:41;;;;;;;3.80;2.40;;;19.60;99.90;;;;;;6213420;23;20430;-81
2021/06/07 08:15:08;;;;;;;2.20;1.75;;;19.80;99.90;;;;;;6213562;23;20027;-80
2021/06/07 08:17:34;;;;;;;3.13;2.10;;;19.70;99.90;;;;;;6212912;23;20027;-80
2021/06/07 08:20:01;;;;;;;4.07;2.10;;;20.10;99.90;;;;;;6212566;23;20075;-82
2021/06/07 08:22:26;;;;;;;6.25;2.50;;;20.30;99.90;;;;;;6212693;23;20349;-81
2021/06/07 08:24:52;;;;;;;4.20;2.47;;;20.60;99.90;;;;;;6213364;23;20023;-80
2021/06/07 08:27:18;;;;;;;5.55;2.70;;;20.50;99.90;;;;;;6213901;23;19992;-80
2021/06/07 08:29:45;;;;;;;3.22;2.33;;;20.60;99.90;;;;;;6213232;23;20003;-80
2021/06/07 08:32:11;;;;;;;4.90;2.80;;;21.10;99.90;;;;;;6213219;23;20000;-80
2021/06/07 08:34:36;;;;;;;4.18;2.35;;;21.80;99.90;;;;;;6213317;23;19993;-80
2021/06/07 08:37:03;;;;;;;2.97;2.05;;;22.00;99.90;;;;;;6212592;23;19997;-80
2021/06/07 08:39:29;;;;;;;4.03;2.00;;;22.20;99.90;;;;;;6213184;23;20001;-80
2021/06/07 08:41:57;;;;;;;3.83;2.00;;;22.00;99.90;;;;;;6212921;23;20004;-80
2021/06/07 08:44:24;;;;;;;5.63;2.83;;;21.80;99.90;;;;;;6211117;23;20000;-80
2021/06/07 08:46:49;;;;;;;4.18;2.65;;;21.50;99.90;;;;;;6211352;23;20075;-81
2021/06/07 08:49:15;;;;;;;7.55;2.60;;;20.90;99.90;;;;;;6213644;23;20086;-81
2021/06/07 08:51:41;;;;;;;7.75;2.40;;;20.60;99.90;;;;;;6212709;23;20011;-80
2021/06/07 08:54:07;;;;;;;3.10;2.42;;;20.70;99.90;;;;;;6210365;23;20007;-80
2021/06/07 08:56:33;;;;;;;4.93;2.22;;;21.40;99.90;;;;;;6212668;23;20000;-81
2021/06/07 08:58:59;;;;;;;3.50;2.20;;;21.40;99.90;;;;;;6212626;23;20004;-81
2021/06/07 09:01:25;;;;;;;4.78;2.33;;;21.10;99.90;;;;;;6212222;23;20020;-81
2021/06/07 09:03:50;;;;;;;2.42;1.83;;;21.30;99.90;;;;;;6213722;23;19997;-81
2021/06/07 09:06:24;;;;;;;4.05;2.40;;;21.90;99.90;;;;;;6212590;23;20068;-81
2021/06/07 09:09:00;;;;;;;2.90;2.10;;;23.00;99.90;;;;;;6214056;23;20003;-81
2021/06/07 09:11:27;;;;;;;3.03;1.80;;;23.50;99.90;;;;;;6213770;23;20003;-81
2021/06/07 09:13:52;;;;;;;4.78;1.65;;;23.00;99.90;;;;;;6212935;23;20067;-81
2021/06/07 09:16:18;;;;;;;3.20;2.08;;;23.40;99.90;;;;;;6209968;23;20039;-82
2021/06/07 09:18:47;;;;;;;6.80;2.08;;;23.00;99.90;;;;;;6211414;23;20008;-82
2021/06/07 09:21:18;;;;;;;3.85;1.90;;;23.00;99.90;;;;;;6212329;23;20020;-82
2021/06/07 09:23:51;;;;;;;1.90;1.80;;;23.40;99.90;;;;;;6214496;23;20331;-82
2021/06/07 09:26:32;;;;;;;3.78;2.00;;;23.40;99.90;;;;;;6213154;23;20356;-83
2021/06/07 09:29:01;;;;;;;4.35;3.00;;;23.00;99.90;;;;;;6213252;23;20071;-82
2021/06/07 09:31:31;;;;;;;4.32;2.40;;;23.00;99.90;;;;;;6212936;23;20494;-82
2021/06/07 09:33:57;;;;;;;2.80;1.77;;;23.00;99.90;;;;;;6211569;23;20010;-82
2021/06/07 09:36:27;;;;;;;2.85;2.33;;;22.40;99.90;;;;;;6212432;23;20007;-82
2021/06/07 09:39:01;;;;;;;;;;;22.60;99.90;;;;;;6214032;23;20524;-82
2021/06/07 09:41:29;;;;;;;2.72;1.73;;;22.70;99.90;;;;;;6213013;23;19900;-82
2021/06/07 09:44:01;;;;;;;2.58;2.08;;;22.60;99.90;;;;;;6212842;23;20001;-82
2021/06/07 09:46:29;;;;;;;2.38;2.00;;;21.80;99.90;;;;;;6213364;23;20051;-82
2021/06/07 09:49:10;;;;;;;4.70;1.90;;;22.10;99.90;;;;;;6213016;23;20000;-82
2021/06/07 09:51:38;;;;;;;1.60;1.50;;;22.90;99.90;;;;;;6213630;23;20051;-82
2021/06/07 09:54:05;;;;;;;1.98;1.88;;;22.90;99.90;;;;;;6211691;23;20004;-82
2021/06/07 09:56:31;;;;;;;3.15;1.65;;;23.70;99.90;;;;;;6214469;23;20000;-82
2021/06/07 09:58:57;;;;;;;5.13;2.00;;;24.10;99.90;;;;;;6214530;23;20451;-82
2021/06/07 10:01:30;;;;;;;1.77;1.45;;;24.80;99.90;;;;;;6212725;23;20000;-81
2021/06/07 10:03:58;;;;;;;1.95;1.60;;;24.60;99.90;;;;;;6214425;23;20055;-82
2021/06/07 10:06:25;;;;;;;1.90;1.80;;;25.30;99.90;;;;;;6214759;23;20338;-82
2021/06/07 10:08:57;;;;;;;3.22;2.08;;;26.10;99.90;;;;;;6214953;23;20506;-82
2021/06/07 10:11:35;;;;;;;1.77;1.30;;;26.50;99.90;;;;;;6213854;23;19993;-82
2021/06/07 10:14:19;;;;;;;15.23;2.30;;;26.10;99.90;;;;;;6213038;23;20005;-82
2021/06/07 10:16:48;;;;;;;15.00;2.47;;;24.90;99.90;;;;;;6214307;23;20028;-81
2021/06/07 10:19:20;;;;;;;6.95;1.52;;;24.60;99.90;;;;;;6214230;23;20006;-82
2021/06/07 10:21:49;;;;;;;2.80;2.28;;;25.60;98.80;;;;;;6213471;23;20004;-81
2021/06/07 10:24:15;;;;;;;11.98;2.28;;;30.20;97.80;;;;;;6214141;23;20007;-81
2021/06/07 10:26:42;;;;;;;2.13;1.50;;;31.40;90.70;;;;;;6212629;23;20438;-81
2021/06/07 10:29:09;;;;;;;8.45;1.55;;;28.70;91.00;;;;;;6214818;23;19996;-81
2021/06/07 10:31:38;;;;;;;1.95;1.77;;;28.30;91.80;;;;;;6214707;23;20339;-82
2021/06/07 10:34:10;;;;;;;2.00;1.80;;;27.80;91.80;;;;;;6213779;23;19999;-82
2021/06/07 10:36:39;;;;;;;3.95;2.20;;;33.20;87.80;;;;;;6214381;23;20050;-82
2021/06/07 10:39:18;;;;;;;2.88;1.70;;;33.60;67.30;;;;;;6214674;23;20031;-82
2021/06/07 10:41:46;;;;;;;3.40;2.22;;;31.50;69.30;;;;;;6214663;23;20071;-82
2021/06/07 10:44:12;;;;;;;3.35;1.80;;;32.40;74.10;;;;;;6214390;23;20007;-81
2021/06/07 10:46:43;;;;;;;3.10;2.03;;;33.80;77.60;;;;;;6213986;23;19993;-82
2021/06/07 10:49:38;;;;;;;3.22;1.92;;;35.00;68.10;;;;;;6214258;23;20003;-82
2021/06/07 10:52:13;;;;;;;4.13;2.10;;;35.20;54.60;;;;;;6211324;23;20088;-82
2021/06/07 10:54:41;;;;;;;2.08;1.88;;;32.80;59.50;;;;;;6214534;23;20327;-82
2021/06/07 10:57:25;;;;;;;1.65;1.48;;;35.10;60.10;;;;;;6214023;23;20004;-82
2021/06/07 10:59:53;;;;;;;5.72;1.98;;;31.00;61.40;;;;;;6214607;23;20000;-81
2021/06/07 11:02:20;;;;;;;3.10;2.08;;;29.50;72.00;;;;;;6213570;23;19993;-82
2021/06/07 11:05:05;;;;;;;6.03;2.42;;;28.40;78.00;;;;;;6213945;23;20023;-82
2021/06/07 11:07:32;;;;;;;2.97;2.47;;;28.30;73.80;;;;;;6214172;23;20001;-82
2021/06/07 11:10:12;;;;;;;3.75;3.10;;;30.20;76.20;;;;;;6213964;23;19993;-82
2021/06/07 11:12:38;;;;;;;2.20;2.10;;;34.10;69.80;;;;;;6212964;23;20339;-82
2021/06/07 11:15:24;;;;;;;2.10;1.85;;;35.20;58.70;;;;;;6214371;23;19996;-81
2021/06/07 11:17:51;;;;;;;3.47;1.85;;;36.60;60.30;;;;;;6213007;23;20333;-81
2021/06/07 11:20:32;;;;;;;1.92;1.60;;;36.90;58.60;;;;;;6213096;23;20004;-82
2021/06/07 11:23:07;;;;;;;2.13;1.75;;;36.40;57.00;;;;;;6214456;23;20058;-82
2021/06/07 11:25:53;;;;;;;1.90;1.80;;;33.50;56.80;;;;;;6213721;23;19997;-82
2021/06/07 11:28:45;;;;;;;9.60;2.47;;;34.10;59.60;;;;;;6212050;23;20001;-82
2021/06/07 11:31:19;;;;;;;2.65;1.90;;;36.80;60.90;;;;;;6213324;23;20001;-82
2021/06/07 11:33:55;;;;;;;2.35;2.15;;;36.20;55.20;;;;;;6213887;23;20003;-82
2021/06/07 11:36:49;;;;;;;2.05;1.88;;;37.20;50.80;;;;;;6213708;23;20442;-80
2021/06/07 11:39:19;;;;;;;2.28;2.08;;;37.40;52.10;;;;;;6213308;23;20442;-81
2021/06/07 11:41:47;;;;;;;;;;;35.90;52.80;;;;;;6214265;23;20434;-81
2021/06/07 11:44:17;;;;;;;2.10;2.00;;;36.30;52.70;;;;;;6213155;23;19979;-81
2021/06/07 11:46:42;;;;;;;2.65;1.92;;;36.30;55.30;;;;;;6213759;23;20557;-81
2021/06/07 11:49:13;;;;;;;4.35;2.20;;;38.80;53.50;;;;;;6213547;23;19997;-81
2021/06/07 11:51:44;;;;;;;3.85;2.40;;;39.50;53.90;;;;;;6213048;23;20067;-81
2021/06/07 11:54:25;;;;;;;2.17;2.00;;;40.70;51.40;;;;;;6210638;23;20506;-80
2021/06/07 11:57:00;;;;;;;3.03;2.28;;;41.80;50.10;;;;;;6212559;23;20084;-80
2021/06/07 11:59:31;;;;;;;2.70;2.00;;;40.80;49.80;;;;;;6213341;23;20024;-80
2021/06/07 12:01:57;;;;;;;1.80;1.70;;;36.80;53.70;;;;;;6213198;23;20138;-81
2021/06/07 12:04:27;;;;;;;2.38;1.70;;;33.30;54.30;;;;;;6213629;23;20008;-81
2021/06/07 12:07:13;;;;;;;2.33;2.15;;;30.40;60.10;;;;;;6213285;23;20000;-78
2021/06/07 12:09:41;;;;;;;2.60;2.40;;;34.50;57.20;;;;;;6213810;23;19993;-78
2021/06/07 12:12:09;;;;;;;3.08;1.92;;;35.00;50.90;;;;;;6213274;23;20100;-78
2021/06/07 12:14:40;;;;;;;2.47;2.28;;;32.30;52.80;;;;;;6212221;23;19997;-78
2021/06/07 12:17:15;;;;;;;2.40;2.20;;;32.60;56.80;;;;;;6212389;23;20083;-78
2021/06/07 12:19:42;;;;;;;2.17;2.08;;;36.90;56.60;;;;;;6212100;23;20024;-77
2021/06/07 12:22:31;;;;;;;2.20;2.00;;;36.00;53.10;;;;;;6210476;23;20327;-78
2021/06/07 12:25:02;;;;;;;2.00;1.80;;;35.80;54.10;;;;;;6193275;23;19997;-79
2021/06/07 12:30:19;;;;;;;2.00;1.90;;;32.00;55.30;;;;;;6212414;23;20039;-79
2021/06/07 12:32:49;;;;;;;3.00;2.78;;;33.70;58.00;;;;;;6211812;23;19997;-79
2021/06/07 12:35:17;;;;;;;2.75;2.55;;;34.30;56.10;;;;;;6212349;23;20005;-77
2021/06/07 12:37:46;;;;;;;2.30;2.17;;;38.20;51.70;;;;;;6211987;23;19997;-78
2021/06/07 12:40:18;;;;;;;1.73;1.63;;;37.60;50.90;;;;;;6213993;23;20054;-78
2021/06/07 12:42:49;;;;;;;2.75;2.55;;;34.60;53.80;;;;;;6212709;23;20023;-79
2021/06/07 12:45:19;;;;;;;2.30;2.15;;;33.90;59.30;;;;;;6212163;23;20027;-79
2021/06/07 12:47:44;;;;;;;2.42;1.92;;;34.50;58.90;;;;;;6212995;23;20001;-79
2021/06/07 12:50:14;;;;;;;2.50;2.28;;;33.10;53.00;;;;;;6212810;23;20300;-79
2021/06/07 12:52:40;;;;;;;;;;;33.50;56.90;;;;;;6209965;23;20013;-78
2021/06/07 12:55:07;;;;;;;1.75;1.67;;;35.00;56.80;;;;;;6212736;23;19900;-79
2021/06/07 12:57:34;;;;;;;2.10;1.67;;;36.00;55.40;;;;;;6209971;23;20034;-79